sensor_id;sensor_type;location;lat;lon;timestamp;temperature;humidity
5842;DHT22;2947;52.276;9.946;2022-09-28T00:00:27;9.00;99.90
5842;DHT22;2947;52.276;9.946;2022-09-28T00:02:56;8.90;99.90
5842;DHT22;2947;52.276;9.946;2022-09-28T00:05:23;9.00;99.90
5842;DHT22;2947;52.276;9.946;2022-09-28T00:07:52;8.90;99.90
5842;DHT22;2947;52.276;9.946;2022-09-28T00:10:19;8.90;99.90
5842;DHT22;2947;52.276;9.946;2022-09-28T00:12:48;8.80;99.90
5842;DHT22;2947;52.276;9.946;2022-09-28T00:15:14;8.80;99.90
5842;DHT22;2947;52.276;9.946;2022-09-28T00:17:40;8.80;99.90
5842;DHT22;2947;52.276;9.946;2022-09-28T00:20:09;8.80;99.90
5842;DHT22;2947;52.276;9.946;2022-09-28T00:22:36;8.80;99.90
5842;DHT22;2947;52.276;9.946;2022-09-28T00:25:03;8.70;99.90
5842;DHT22;2947;52.276;9.946;2022-09-28T00:27:30;8.70;99.90
5842;DHT22;2947;52.276;9.946;2022-09-28T00:29:56;8.70;99.90
5842;DHT22;2947;52.276;9.946;2022-09-28T00:32:22;8.60;99.90
5842;DHT22;2947;52.276;9.946;2022-09-28T00:34:49;8.70;99.90
5842;DHT22;2947;52.276;9.946;2022-09-28T00:37:16;8.70;99.90
5842;DHT22;2947;52.276;9.946;2022-09-28T00:39:44;8.60;99.90
5842;DHT22;2947;52.276;9.946;2022-09-28T00:42:11;8.60;99.90
5842;DHT22;2947;52.276;9.946;2022-09-28T00:44:53;8.60;99.90
5842;DHT22;2947;52.276;9.946;2022-09-28T00:50:19;8.60;99.90
5842;DHT22;2947;52.276;9.946;2022-09-28T00:52:58;8.50;99.90
5842;DHT22;2947;52.276;9.946;2022-09-28T00:56:04;8.50;99.90
5842;DHT22;2947;52.276;9.946;2022-09-28T00:58:32;8.40;99.90
5842;DHT22;2947;52.276;9.946;2022-09-28T01:01:00;8.40;99.90
5842;DHT22;2947;52.276;9.946;2022-09-28T01:03:27;8.40;99.90
5842;DHT22;2947;52.276;9.946;2022-09-28T01:05:55;8.40;99.90
5842;DHT22;2947;52.276;9.946;2022-09-28T01:08:23;8.40;99.90
5842;DHT22;2947;52.276;9.946;2022-09-28T01:10:52;8.30;99.90
5842;DHT22;2947;52.276;9.946;2022-09-28T01:13:19;8.40;99.90
5842;DHT22;2947;52.276;9.946;2022-09-28T01:25:12;8.30;99.90
5842;DHT22;2947;52.276;9.946;2022-09-28T01:27:56;8.30;99.90
5842;DHT22;2947;52.276;9.946;2022-09-28T01:30:24;8.30;99.90
5842;DHT22;2947;52.276;9.946;2022-09-28T01:33:02;8.30;99.90
5842;DHT22;2947;52.276;9.946;2022-09-28T01:35:41;8.30;99.90
5842;DHT22;2947;52.276;9.946;2022-09-28T01:38:33;8.30;99.90
5842;DHT22;2947;52.276;9.946;2022-09-28T01:41:06;8.30;99.90
5842;DHT22;2947;52.276;9.946;2022-09-28T01:43:36;7.90;99.90
5842;DHT22;2947;52.276;9.946;2022-09-28T01:46:10;8.30;99.90
5842;DHT22;2947;52.276;9.946;2022-09-28T01:48:46;8.30;99.90
5842;DHT22;2947;52.276;9.946;2022-09-28T01:51:25;8.40;99.90
5842;DHT22;2947;52.276;9.946;2022-09-28T01:54:00;8.40;99.90
5842;DHT22;2947;52.276;9.946;2022-09-28T01:57:01;8.40;99.90
5842;DHT22;2947;52.276;9.946;2022-09-28T01:59:36;8.40;99.90
5842;DHT22;2947;52.276;9.946;2022-09-28T02:02:13;8.50;99.90
5842;DHT22;2947;52.276;9.946;2022-09-28T02:04:46;8.40;99.90
5842;DHT22;2947;52.276;9.946;2022-09-28T02:07:37;8.50;99.90
5842;DHT22;2947;52.276;9.946;2022-09-28T02:10:09;8.40;99.90
5842;DHT22;2947;52.276;9.946;2022-09-28T02:12:45;8.40;99.90
5842;DHT22;2947;52.276;9.946;2022-09-28T02:15:19;8.40;99.90
5842;DHT22;2947;52.276;9.946;2022-09-28T02:17:49;8.50;99.90
5842;DHT22;2947;52.276;9.946;2022-09-28T02:20:16;8.50;99.90
5842;DHT22;2947;52.276;9.946;2022-09-28T02:22:46;8.50;99.90
5842;DHT22;2947;52.276;9.946;2022-09-28T02:28:09;8.50;99.90
5842;DHT22;2947;52.276;9.946;2022-09-28T02:30:37;8.50;99.90
5842;DHT22;2947;52.276;9.946;2022-09-28T02:33:17;8.50;99.90
5842;DHT22;2947;52.276;9.946;2022-09-28T02:35:45;8.50;99.90
5842;DHT22;2947;52.276;9.946;2022-09-28T02:38:13;9.20;99.90
5842;DHT22;2947;52.276;9.946;2022-09-28T02:40:40;8.50;99.90
5842;DHT22;2947;52.276;9.946;2022-09-28T02:43:26;8.60;99.90
5842;DHT22;2947;52.276;9.946;2022-09-28T02:46:08;8.50;99.90
5842;DHT22;2947;52.276;9.946;2022-09-28T02:49:11;8.60;99.90
5842;DHT22;2947;52.276;9.946;2022-09-28T02:52:07;8.60;99.90
5842;DHT22;2947;52.276;9.946;2022-09-28T02:55:05;8.60;99.90
5842;DHT22;2947;52.276;9.946;2022-09-28T03:00:18;8.70;99.90
5842;DHT22;2947;52.276;9.946;2022-09-28T03:03:03;10.00;99.90
5842;DHT22;2947;52.276;9.946;2022-09-28T03:11:20;8.70;99.90
5842;DHT22;2947;52.276;9.946;2022-09-28T03:13:49;8.60;99.90
5842;DHT22;2947;52.276;9.946;2022-09-28T03:16:17;8.70;99.90
5842;DHT22;2947;52.276;9.946;2022-09-28T03:18:44;8.70;99.90
5842;DHT22;2947;52.276;9.946;2022-09-28T03:21:11;8.70;99.90
5842;DHT22;2947;52.276;9.946;2022-09-28T03:23:37;8.70;99.90
5842;DHT22;2947;52.276;9.946;2022-09-28T03:26:04;8.70;99.90
5842;DHT22;2947;52.276;9.946;2022-09-28T03:28:29;8.70;99.90
5842;DHT22;2947;52.276;9.946;2022-09-28T03:30:55;8.70;99.90
5842;DHT22;2947;52.276;9.946;2022-09-28T03:33:21;8.70;99.90
5842;DHT22;2947;52.276;9.946;2022-09-28T03:35:51;8.70;99.90
5842;DHT22;2947;52.276;9.946;2022-09-28T03:38:18;8.70;99.90
5842;DHT22;2947;52.276;9.946;2022-09-28T03:40:58;8.70;99.90
5842;DHT22;2947;52.276;9.946;2022-09-28T03:43:25;8.10;99.90
5842;DHT22;2947;52.276;9.946;2022-09-28T03:45:59;8.80;99.90
5842;DHT22;2947;52.276;9.946;2022-09-28T03:51:03;8.80;99.90
5842;DHT22;2947;52.276;9.946;2022-09-28T03:53:32;8.80;99.90
5842;DHT22;2947;52.276;9.946;2022-09-28T03:56:06;8.90;99.90
5842;DHT22;2947;52.276;9.946;2022-09-28T03:58:36;10.10;99.90
5842;DHT22;2947;52.276;9.946;2022-09-28T04:01:04;8.90;99.90
5842;DHT22;2947;52.276;9.946;2022-09-28T04:03:31;9.00;99.90
5842;DHT22;2947;52.276;9.946;2022-09-28T04:05:57;9.00;99.90
5842;DHT22;2947;52.276;9.946;2022-09-28T04:08:23;9.00;99.90
5842;DHT22;2947;52.276;9.946;2022-09-28T04:10:49;9.00;99.90
5842;DHT22;2947;52.276;9.946;2022-09-28T04:13:14;9.00;99.90
5842;DHT22;2947;52.276;9.946;2022-09-28T04:15:41;9.10;99.90
5842;DHT22;2947;52.276;9.946;2022-09-28T04:18:11;9.00;99.90
5842;DHT22;2947;52.276;9.946;2022-09-28T04:20:38;9.00;99.90
5842;DHT22;2947;52.276;9.946;2022-09-28T04:23:06;9.00;99.90
5842;DHT22;2947;52.276;9.946;2022-09-28T04:25:31;9.10;99.90
5842;DHT22;2947;52.276;9.946;2022-09-28T04:27:57;9.10;99.90
5842;DHT22;2947;52.276;9.946;2022-09-28T04:30:41;9.10;99.90
5842;DHT22;2947;52.276;9.946;2022-09-28T04:33:07;9.10;99.90
5842;DHT22;2947;52.276;9.946;2022-09-28T04:35:32;9.10;99.90
5842;DHT22;2947;52.276;9.946;2022-09-28T04:37:58;9.10;99.90
5842;DHT22;2947;52.276;9.946;2022-09-28T04:40:24;9.10;99.90
5842;DHT22;2947;52.276;9.946;2022-09-28T04:42:54;9.10;99.90
5842;DHT22;2947;52.276;9.946;2022-09-28T04:45:20;9.10;99.90
5842;DHT22;2947;52.276;9.946;2022-09-28T04:47:46;9.10;99.90
5842;DHT22;2947;52.276;9.946;2022-09-28T04:50:12;9.10;99.90
5842;DHT22;2947;52.276;9.946;2022-09-28T04:52:37;9.10;99.90
5842;DHT22;2947;52.276;9.946;2022-09-28T04:55:04;9.10;99.90
5842;DHT22;2947;52.276;9.946;2022-09-28T04:57:33;9.10;99.90
5842;DHT22;2947;52.276;9.946;2022-09-28T04:59:59;9.10;99.90
5842;DHT22;2947;52.276;9.946;2022-09-28T05:02:25;9.10;99.90
5842;DHT22;2947;52.276;9.946;2022-09-28T05:04:52;9.10;99.90
5842;DHT22;2947;52.276;9.946;2022-09-28T05:07:19;9.10;99.90
5842;DHT22;2947;52.276;9.946;2022-09-28T05:09:45;9.10;99.90
5842;DHT22;2947;52.276;9.946;2022-09-28T05:12:10;9.10;99.90
5842;DHT22;2947;52.276;9.946;2022-09-28T05:14:36;9.20;99.90
5842;DHT22;2947;52.276;9.946;2022-09-28T05:17:02;9.10;99.90
5842;DHT22;2947;52.276;9.946;2022-09-28T05:19:28;9.20;99.90
5842;DHT22;2947;52.276;9.946;2022-09-28T05:21:54;9.70;99.90
5842;DHT22;2947;52.276;9.946;2022-09-28T05:24:22;9.10;99.90
5842;DHT22;2947;52.276;9.946;2022-09-28T05:26:48;9.20;99.90
5842;DHT22;2947;52.276;9.946;2022-09-28T05:29:14;9.10;99.90
5842;DHT22;2947;52.276;9.946;2022-09-28T05:31:39;9.20;99.90
5842;DHT22;2947;52.276;9.946;2022-09-28T05:34:05;9.10;99.90
5842;DHT22;2947;52.276;9.946;2022-09-28T05:36:31;9.20;99.90
5842;DHT22;2947;52.276;9.946;2022-09-28T05:38:57;9.20;99.90
5842;DHT22;2947;52.276;9.946;2022-09-28T05:41:23;9.20;99.90
5842;DHT22;2947;52.276;9.946;2022-09-28T05:43:48;9.20;99.90
5842;DHT22;2947;52.276;9.946;2022-09-28T05:46:16;9.20;99.90
5842;DHT22;2947;52.276;9.946;2022-09-28T05:48:42;9.20;99.90
5842;DHT22;2947;52.276;9.946;2022-09-28T05:51:08;9.20;99.90
5842;DHT22;2947;52.276;9.946;2022-09-28T05:53:34;9.20;99.90
5842;DHT22;2947;52.276;9.946;2022-09-28T05:56:00;9.20;99.90
5842;DHT22;2947;52.276;9.946;2022-09-28T05:58:27;9.20;99.90
5842;DHT22;2947;52.276;9.946;2022-09-28T06:00:54;9.20;99.90
5842;DHT22;2947;52.276;9.946;2022-09-28T06:03:20;9.30;99.90
5842;DHT22;2947;52.276;9.946;2022-09-28T06:05:46;9.20;99.90
5842;DHT22;2947;52.276;9.946;2022-09-28T06:08:12;9.10;99.90
5842;DHT22;2947;52.276;9.946;2022-09-28T06:10:38;9.20;99.90
5842;DHT22;2947;52.276;9.946;2022-09-28T06:13:05;9.20;99.90
5842;DHT22;2947;52.276;9.946;2022-09-28T06:15:33;9.20;99.90
5842;DHT22;2947;52.276;9.946;2022-09-28T06:18:04;9.20;99.90
5842;DHT22;2947;52.276;9.946;2022-09-28T06:20:39;9.20;99.90
5842;DHT22;2947;52.276;9.946;2022-09-28T06:23:06;10.80;99.90
5842;DHT22;2947;52.276;9.946;2022-09-28T06:25:33;9.20;99.90
5842;DHT22;2947;52.276;9.946;2022-09-28T06:28:00;9.20;99.90
5842;DHT22;2947;52.276;9.946;2022-09-28T06:30:36;9.30;99.90
5842;DHT22;2947;52.276;9.946;2022-09-28T06:33:04;9.30;99.90
5842;DHT22;2947;52.276;9.946;2022-09-28T06:35:31;9.30;99.90
5842;DHT22;2947;52.276;9.946;2022-09-28T06:37:57;9.30;99.90
5842;DHT22;2947;52.276;9.946;2022-09-28T06:40:24;9.30;99.90
5842;DHT22;2947;52.276;9.946;2022-09-28T06:43:01;9.30;99.90
5842;DHT22;2947;52.276;9.946;2022-09-28T06:45:35;9.30;99.90
5842;DHT22;2947;52.276;9.946;2022-09-28T06:48:02;9.30;99.90
5842;DHT22;2947;52.276;9.946;2022-09-28T06:50:31;9.30;99.90
5842;DHT22;2947;52.276;9.946;2022-09-28T06:53:00;9.30;99.90
5842;DHT22;2947;52.276;9.946;2022-09-28T06:55:27;9.30;99.90
5842;DHT22;2947;52.276;9.946;2022-09-28T06:57:57;9.30;99.90
5842;DHT22;2947;52.276;9.946;2022-09-28T07:00:24;9.30;99.90
5842;DHT22;2947;52.276;9.946;2022-09-28T07:02:53;9.30;99.90
5842;DHT22;2947;52.276;9.946;2022-09-28T07:05:19;10.20;99.90
5842;DHT22;2947;52.276;9.946;2022-09-28T07:07:52;8.70;99.90
5842;DHT22;2947;52.276;9.946;2022-09-28T07:10:23;10.20;99.90
5842;DHT22;2947;52.276;9.946;2022-09-28T07:12:50;9.40;99.90
5842;DHT22;2947;52.276;9.946;2022-09-28T07:15:17;9.40;99.90
5842;DHT22;2947;52.276;9.946;2022-09-28T07:17:43;9.40;99.90
5842;DHT22;2947;52.276;9.946;2022-09-28T07:20:08;9.40;99.90
5842;DHT22;2947;52.276;9.946;2022-09-28T07:22:34;9.40;99.90
5842;DHT22;2947;52.276;9.946;2022-09-28T07:25:00;9.50;99.90
5842;DHT22;2947;52.276;9.946;2022-09-28T07:27:26;9.50;99.90
5842;DHT22;2947;52.276;9.946;2022-09-28T07:29:52;9.40;99.90
5842;DHT22;2947;52.276;9.946;2022-09-28T07:32:21;9.40;99.90
5842;DHT22;2947;52.276;9.946;2022-09-28T07:34:47;9.40;99.90
5842;DHT22;2947;52.276;9.946;2022-09-28T07:37:13;9.50;99.90
5842;DHT22;2947;52.276;9.946;2022-09-28T07:39:40;9.50;99.90
5842;DHT22;2947;52.276;9.946;2022-09-28T07:42:24;9.60;99.90
5842;DHT22;2947;52.276;9.946;2022-09-28T07:44:54;9.60;99.90
5842;DHT22;2947;52.276;9.946;2022-09-28T07:47:21;9.60;99.90
5842;DHT22;2947;52.276;9.946;2022-09-28T07:49:52;9.70;99.90
5842;DHT22;2947;52.276;9.946;2022-09-28T07:52:20;9.70;99.90
5842;DHT22;2947;52.276;9.946;2022-09-28T07:54:49;9.70;99.90
5842;DHT22;2947;52.276;9.946;2022-09-28T07:57:17;9.70;99.90
5842;DHT22;2947;52.276;9.946;2022-09-28T07:59:44;9.70;99.90
5842;DHT22;2947;52.276;9.946;2022-09-28T08:02:10;9.70;99.90
5842;DHT22;2947;52.276;9.946;2022-09-28T08:04:36;9.70;99.90
5842;DHT22;2947;52.276;9.946;2022-09-28T08:07:02;9.70;99.90
5842;DHT22;2947;52.276;9.946;2022-09-28T08:09:28;9.60;99.90
5842;DHT22;2947;52.276;9.946;2022-09-28T08:11:54;9.50;99.90
5842;DHT22;2947;52.276;9.946;2022-09-28T08:14:20;9.50;99.90
5842;DHT22;2947;52.276;9.946;2022-09-28T08:16:46;9.40;99.90
5842;DHT22;2947;52.276;9.946;2022-09-28T08:19:12;9.40;99.90
5842;DHT22;2947;52.276;9.946;2022-09-28T08:21:37;9.30;99.90
5842;DHT22;2947;52.276;9.946;2022-09-28T08:24:09;9.20;99.90
5842;DHT22;2947;52.276;9.946;2022-09-28T08:26:35;9.20;99.90
5842;DHT22;2947;52.276;9.946;2022-09-28T08:29:00;9.20;99.90
5842;DHT22;2947;52.276;9.946;2022-09-28T08:31:27;9.10;99.90
5842;DHT22;2947;52.276;9.946;2022-09-28T08:33:53;9.40;99.90
5842;DHT22;2947;52.276;9.946;2022-09-28T08:36:19;9.00;99.90
5842;DHT22;2947;52.276;9.946;2022-09-28T08:38:48;9.00;99.90
5842;DHT22;2947;52.276;9.946;2022-09-28T08:41:43;9.00;99.90
5842;DHT22;2947;52.276;9.946;2022-09-28T08:44:20;9.10;99.90
5842;DHT22;2947;52.276;9.946;2022-09-28T08:46:57;9.10;99.90
5842;DHT22;2947;52.276;9.946;2022-09-28T08:49:36;9.00;99.90
5842;DHT22;2947;52.276;9.946;2022-09-28T08:52:19;9.10;99.90
5842;DHT22;2947;52.276;9.946;2022-09-28T08:54:54;9.10;99.90
5842;DHT22;2947;52.276;9.946;2022-09-28T08:57:26;9.20;99.90
5842;DHT22;2947;52.276;9.946;2022-09-28T08:59:56;8.80;99.90
5842;DHT22;2947;52.276;9.946;2022-09-28T09:02:37;9.30;99.90
5842;DHT22;2947;52.276;9.946;2022-09-28T09:05:06;9.30;99.90
5842;DHT22;2947;52.276;9.946;2022-09-28T09:07:57;9.30;99.90
5842;DHT22;2947;52.276;9.946;2022-09-28T09:10:46;9.40;99.90
5842;DHT22;2947;52.276;9.946;2022-09-28T09:13:30;9.40;99.90
5842;DHT22;2947;52.276;9.946;2022-09-28T09:19:21;9.40;99.90
5842;DHT22;2947;52.276;9.946;2022-09-28T09:22:20;9.40;99.90
5842;DHT22;2947;52.276;9.946;2022-09-28T09:24:54;9.30;99.90
5842;DHT22;2947;52.276;9.946;2022-09-28T09:27:55;9.40;99.90
5842;DHT22;2947;52.276;9.946;2022-09-28T09:30:40;9.50;99.90
5842;DHT22;2947;52.276;9.946;2022-09-28T09:36:17;9.50;99.90
5842;DHT22;2947;52.276;9.946;2022-09-28T09:42:00;9.60;99.90
5842;DHT22;2947;52.276;9.946;2022-09-28T09:44:41;10.60;99.90
5842;DHT22;2947;52.276;9.946;2022-09-28T09:47:42;9.70;99.90
5842;DHT22;2947;52.276;9.946;2022-09-28T09:50:36;9.70;99.90
5842;DHT22;2947;52.276;9.946;2022-09-28T09:53:39;9.80;99.90
5842;DHT22;2947;52.276;9.946;2022-09-28T09:56:18;9.70;99.90
5842;DHT22;2947;52.276;9.946;2022-09-28T09:59:04;9.70;99.90
5842;DHT22;2947;52.276;9.946;2022-09-28T10:01:36;9.70;99.90
5842;DHT22;2947;52.276;9.946;2022-09-28T10:04:16;9.70;99.90
5842;DHT22;2947;52.276;9.946;2022-09-28T10:06:46;9.60;99.90
5842;DHT22;2947;52.276;9.946;2022-09-28T10:09:24;9.70;99.90
5842;DHT22;2947;52.276;9.946;2022-09-28T10:11:51;9.70;99.90
5842;DHT22;2947;52.276;9.946;2022-09-28T10:14:21;10.60;99.90
5842;DHT22;2947;52.276;9.946;2022-09-28T10:16:50;9.60;99.90
5842;DHT22;2947;52.276;9.946;2022-09-28T10:19:19;9.70;99.90
5842;DHT22;2947;52.276;9.946;2022-09-28T10:21:49;9.70;99.90
5842;DHT22;2947;52.276;9.946;2022-09-28T10:27:07;9.70;99.90
5842;DHT22;2947;52.276;9.946;2022-09-28T10:30:28;9.80;99.90
5842;DHT22;2947;52.276;9.946;2022-09-28T10:32:52;9.80;99.90
5842;DHT22;2947;52.276;9.946;2022-09-28T10:35:28;9.80;99.90
5842;DHT22;2947;52.276;9.946;2022-09-28T10:38:11;9.70;99.90
5842;DHT22;2947;52.276;9.946;2022-09-28T10:43:33;9.80;99.90
5842;DHT22;2947;52.276;9.946;2022-09-28T10:49:00;9.90;99.90
5842;DHT22;2947;52.276;9.946;2022-09-28T10:51:47;10.00;99.90
5842;DHT22;2947;52.276;9.946;2022-09-28T10:54:24;10.00;99.90
5842;DHT22;2947;52.276;9.946;2022-09-28T10:56:53;10.00;99.90
5842;DHT22;2947;52.276;9.946;2022-09-28T10:59:24;10.10;99.90
5842;DHT22;2947;52.276;9.946;2022-09-28T11:04:39;10.30;99.90
5842;DHT22;2947;52.276;9.946;2022-09-28T11:07:16;10.50;99.90
5842;DHT22;2947;52.276;9.946;2022-09-28T11:09:46;9.00;99.90
5842;DHT22;2947;52.276;9.946;2022-09-28T11:12:15;10.60;99.90
5842;DHT22;2947;52.276;9.946;2022-09-28T11:14:45;10.60;99.90
5842;DHT22;2947;52.276;9.946;2022-09-28T11:17:25;10.70;99.90
5842;DHT22;2947;52.276;9.946;2022-09-28T11:19:52;10.70;99.90
5842;DHT22;2947;52.276;9.946;2022-09-28T11:22:25;10.90;99.90
5842;DHT22;2947;52.276;9.946;2022-09-28T11:25:18;10.80;99.90
5842;DHT22;2947;52.276;9.946;2022-09-28T11:30:31;11.00;99.90
5842;DHT22;2947;52.276;9.946;2022-09-28T11:33:08;11.00;99.90
5842;DHT22;2947;52.276;9.946;2022-09-28T11:44:26;11.30;99.90
5842;DHT22;2947;52.276;9.946;2022-09-28T11:49:56;11.50;99.90
5842;DHT22;2947;52.276;9.946;2022-09-28T11:52:45;11.50;99.90
5842;DHT22;2947;52.276;9.946;2022-09-28T11:58:01;11.60;99.90
5842;DHT22;2947;52.276;9.946;2022-09-28T12:00:33;11.80;99.90
5842;DHT22;2947;52.276;9.946;2022-09-28T12:03:17;11.80;99.90
5842;DHT22;2947;52.276;9.946;2022-09-28T12:05:58;11.90;99.90
5842;DHT22;2947;52.276;9.946;2022-09-28T12:08:51;12.00;99.90
5842;DHT22;2947;52.276;9.946;2022-09-28T12:11:31;12.20;99.90
5842;DHT22;2947;52.276;9.946;2022-09-28T12:14:01;12.20;85.80
5842;DHT22;2947;52.276;9.946;2022-09-28T12:16:44;12.30;92.40
5842;DHT22;2947;52.276;9.946;2022-09-28T12:19:20;12.50;99.90
5842;DHT22;2947;52.276;9.946;2022-09-28T12:22:54;12.70;91.40
5842;DHT22;2947;52.276;9.946;2022-09-28T12:25:24;12.80;29.60
5842;DHT22;2947;52.276;9.946;2022-09-28T12:27:56;13.70;1.00
5842;DHT22;2947;52.276;9.946;2022-09-28T12:30:24;13.10;48.60
5842;DHT22;2947;52.276;9.946;2022-09-28T12:33:07;13.20;1.00
5842;DHT22;2947;52.276;9.946;2022-09-28T12:58:50;13.10;99.90
5842;DHT22;2947;52.276;9.946;2022-09-28T13:12:46;12.80;1.00
5842;DHT22;2947;52.276;9.946;2022-09-28T13:15:32;12.60;99.90
5842;DHT22;2947;52.276;9.946;2022-09-28T13:18:27;12.60;1.00
5842;DHT22;2947;52.276;9.946;2022-09-28T13:21:13;12.60;99.90
5842;DHT22;2947;52.276;9.946;2022-09-28T13:23:45;12.50;99.90
5842;DHT22;2947;52.276;9.946;2022-09-28T13:28:50;12.70;99.90
5842;DHT22;2947;52.276;9.946;2022-09-28T13:31:22;12.70;1.00
5842;DHT22;2947;52.276;9.946;2022-09-28T13:33:54;12.70;92.90
5842;DHT22;2947;52.276;9.946;2022-09-28T13:38:51;12.60;99.90
5842;DHT22;2947;52.276;9.946;2022-09-28T13:41:35;12.70;1.00
5842;DHT22;2947;52.276;9.946;2022-09-28T13:44:16;12.60;1.00
5842;DHT22;2947;52.276;9.946;2022-09-28T13:47:10;12.70;1.00
5842;DHT22;2947;52.276;9.946;2022-09-28T13:53:19;12.80;1.00
5842;DHT22;2947;52.276;9.946;2022-09-28T13:59:25;12.80;1.00
5842;DHT22;2947;52.276;9.946;2022-09-28T14:10:19;12.20;99.90
5842;DHT22;2947;52.276;9.946;2022-09-28T14:12:52;12.10;1.00
5842;DHT22;2947;52.276;9.946;2022-09-28T14:18:19;12.00;99.90
5842;DHT22;2947;52.276;9.946;2022-09-28T14:24:05;12.00;1.00
5842;DHT22;2947;52.276;9.946;2022-09-28T14:26:50;12.00;1.00
5842;DHT22;2947;52.276;9.946;2022-09-28T14:29:33;12.10;1.00
5842;DHT22;2947;52.276;9.946;2022-09-28T14:34:39;11.90;1.00
5842;DHT22;2947;52.276;9.946;2022-09-28T14:37:23;12.80;1.00
5842;DHT22;2947;52.276;9.946;2022-09-28T14:40:18;11.80;1.00
5842;DHT22;2947;52.276;9.946;2022-09-28T14:49:02;11.40;1.00
5842;DHT22;2947;52.276;9.946;2022-09-28T14:54:23;11.60;12.30
5842;DHT22;2947;52.276;9.946;2022-09-28T14:57:21;11.50;99.90
5842;DHT22;2947;52.276;9.946;2022-09-28T14:59:49;11.60;30.00
5842;DHT22;2947;52.276;9.946;2022-09-28T15:02:31;11.70;99.90
5842;DHT22;2947;52.276;9.946;2022-09-28T15:07:53;11.50;99.90
5842;DHT22;2947;52.276;9.946;2022-09-28T15:10:23;11.40;99.90
5842;DHT22;2947;52.276;9.946;2022-09-28T15:12:50;11.70;99.90
5842;DHT22;2947;52.276;9.946;2022-09-28T15:15:48;11.30;99.90
5842;DHT22;2947;52.276;9.946;2022-09-28T15:18:32;11.40;1.00
5842;DHT22;2947;52.276;9.946;2022-09-28T15:21:01;11.40;99.90
5842;DHT22;2947;52.276;9.946;2022-09-28T15:23:39;11.40;99.90
5842;DHT22;2947;52.276;9.946;2022-09-28T15:26:18;11.50;99.90
5842;DHT22;2947;52.276;9.946;2022-09-28T15:28:46;11.50;1.00
5842;DHT22;2947;52.276;9.946;2022-09-28T15:31:20;11.40;99.90
5842;DHT22;2947;52.276;9.946;2022-09-28T15:33:48;11.50;99.90
5842;DHT22;2947;52.276;9.946;2022-09-28T15:36:40;12.30;95.80
5842;DHT22;2947;52.276;9.946;2022-09-28T15:39:20;11.70;99.90
5842;DHT22;2947;52.276;9.946;2022-09-28T15:41:49;11.60;99.90
5842;DHT22;2947;52.276;9.946;2022-09-28T15:49:43;11.60;99.90
5842;DHT22;2947;52.276;9.946;2022-09-28T15:54:58;11.80;99.90
5842;DHT22;2947;52.276;9.946;2022-09-28T15:57:35;11.80;99.90
5842;DHT22;2947;52.276;9.946;2022-09-28T16:05:47;11.90;99.90
5842;DHT22;2947;52.276;9.946;2022-09-28T16:08:22;11.80;1.00
5842;DHT22;2947;52.276;9.946;2022-09-28T16:11:21;11.80;99.90
5842;DHT22;2947;52.276;9.946;2022-09-28T16:13:56;12.50;99.90
5842;DHT22;2947;52.276;9.946;2022-09-28T16:16:32;11.80;99.90
5842;DHT22;2947;52.276;9.946;2022-09-28T16:19:03;11.80;99.90
5842;DHT22;2947;52.276;9.946;2022-09-28T16:21:45;11.80;99.90
5842;DHT22;2947;52.276;9.946;2022-09-28T16:24:31;11.80;99.90
5842;DHT22;2947;52.276;9.946;2022-09-28T16:27:08;11.70;99.90
5842;DHT22;2947;52.276;9.946;2022-09-28T16:30:25;13.20;1.00
5842;DHT22;2947;52.276;9.946;2022-09-28T16:33:26;11.70;99.90
5842;DHT22;2947;52.276;9.946;2022-09-28T16:36:14;11.80;99.90
5842;DHT22;2947;52.276;9.946;2022-09-28T16:38:45;11.80;99.90
5842;DHT22;2947;52.276;9.946;2022-09-28T16:41:12;11.80;36.20
5842;DHT22;2947;52.276;9.946;2022-09-28T16:43:39;11.70;1.00
5842;DHT22;2947;52.276;9.946;2022-09-28T16:46:11;11.80;75.30
5842;DHT22;2947;52.276;9.946;2022-09-28T16:48:43;11.70;32.90
5842;DHT22;2947;52.276;9.946;2022-09-28T16:51:16;12.60;1.00
5842;DHT22;2947;52.276;9.946;2022-09-28T16:53:43;11.60;1.00
5842;DHT22;2947;52.276;9.946;2022-09-28T16:56:28;11.60;9.60
5842;DHT22;2947;52.276;9.946;2022-09-28T16:58:55;11.70;98.50
5842;DHT22;2947;52.276;9.946;2022-09-28T17:01:22;12.20;99.90
5842;DHT22;2947;52.276;9.946;2022-09-28T17:03:48;12.60;99.90
5842;DHT22;2947;52.276;9.946;2022-09-28T17:06:16;11.60;99.90
5842;DHT22;2947;52.276;9.946;2022-09-28T17:08:43;11.60;99.90
5842;DHT22;2947;52.276;9.946;2022-09-28T17:11:14;11.60;99.90
5842;DHT22;2947;52.276;9.946;2022-09-28T17:13:44;12.50;99.90
5842;DHT22;2947;52.276;9.946;2022-09-28T17:16:16;11.50;99.90
5842;DHT22;2947;52.276;9.946;2022-09-28T17:18:47;11.80;99.90
5842;DHT22;2947;52.276;9.946;2022-09-28T17:21:19;11.50;99.90
5842;DHT22;2947;52.276;9.946;2022-09-28T17:23:47;11.40;99.90
5842;DHT22;2947;52.276;9.946;2022-09-28T17:26:50;11.40;1.00
5842;DHT22;2947;52.276;9.946;2022-09-28T17:29:13;11.40;1.00
5842;DHT22;2947;52.276;9.946;2022-09-28T17:31:41;11.50;1.00
5842;DHT22;2947;52.276;9.946;2022-09-28T17:34:08;11.60;1.00
5842;DHT22;2947;52.276;9.946;2022-09-28T17:36:35;11.60;1.00
5842;DHT22;2947;52.276;9.946;2022-09-28T17:39:01;11.60;1.00
5842;DHT22;2947;52.276;9.946;2022-09-28T17:41:28;11.70;1.00
5842;DHT22;2947;52.276;9.946;2022-09-28T17:43:53;11.70;1.00
5842;DHT22;2947;52.276;9.946;2022-09-28T17:46:29;11.60;99.90
5842;DHT22;2947;52.276;9.946;2022-09-28T17:48:57;11.70;99.90
5842;DHT22;2947;52.276;9.946;2022-09-28T17:51:28;11.60;99.90
5842;DHT22;2947;52.276;9.946;2022-09-28T17:53:56;11.60;99.90
5842;DHT22;2947;52.276;9.946;2022-09-28T17:56:23;12.50;99.90
5842;DHT22;2947;52.276;9.946;2022-09-28T17:58:49;11.70;99.90
5842;DHT22;2947;52.276;9.946;2022-09-28T18:01:15;11.60;1.00
5842;DHT22;2947;52.276;9.946;2022-09-28T18:03:41;11.60;1.00
5842;DHT22;2947;52.276;9.946;2022-09-28T18:06:11;11.50;1.00
5842;DHT22;2947;52.276;9.946;2022-09-28T18:08:39;11.50;1.00
5842;DHT22;2947;52.276;9.946;2022-09-28T18:11:05;11.40;1.00
5842;DHT22;2947;52.276;9.946;2022-09-28T18:13:31;11.10;1.00
5842;DHT22;2947;52.276;9.946;2022-09-28T18:15:57;11.50;1.00
5842;DHT22;2947;52.276;9.946;2022-09-28T18:18:23;11.40;1.00
5842;DHT22;2947;52.276;9.946;2022-09-28T18:20:50;11.40;1.00
5842;DHT22;2947;52.276;9.946;2022-09-28T18:23:16;11.40;1.00
5842;DHT22;2947;52.276;9.946;2022-09-28T18:25:43;11.30;1.00
5842;DHT22;2947;52.276;9.946;2022-09-28T18:28:10;11.50;1.00
5842;DHT22;2947;52.276;9.946;2022-09-28T18:30:42;11.40;1.00
5842;DHT22;2947;52.276;9.946;2022-09-28T18:33:10;11.40;1.00
5842;DHT22;2947;52.276;9.946;2022-09-28T18:35:37;11.30;1.00
5842;DHT22;2947;52.276;9.946;2022-09-28T18:38:04;11.30;1.00
5842;DHT22;2947;52.276;9.946;2022-09-28T18:40:31;11.90;1.00
5842;DHT22;2947;52.276;9.946;2022-09-28T18:42:58;11.50;1.00
5842;DHT22;2947;52.276;9.946;2022-09-28T18:45:23;12.00;1.00
5842;DHT22;2947;52.276;9.946;2022-09-28T18:47:49;11.10;1.00
5842;DHT22;2947;52.276;9.946;2022-09-28T18:50:15;11.10;1.00
5842;DHT22;2947;52.276;9.946;2022-09-28T18:52:42;11.60;1.00
5842;DHT22;2947;52.276;9.946;2022-09-28T18:55:10;11.00;1.00
5842;DHT22;2947;52.276;9.946;2022-09-28T18:57:37;10.90;1.00
5842;DHT22;2947;52.276;9.946;2022-09-28T19:00:07;10.90;1.00
5842;DHT22;2947;52.276;9.946;2022-09-28T19:02:34;10.90;1.00
5842;DHT22;2947;52.276;9.946;2022-09-28T19:05:00;10.80;1.00
5842;DHT22;2947;52.276;9.946;2022-09-28T19:07:26;10.80;1.00
5842;DHT22;2947;52.276;9.946;2022-09-28T19:09:51;10.70;1.00
5842;DHT22;2947;52.276;9.946;2022-09-28T19:12:18;9.70;1.00
5842;DHT22;2947;52.276;9.946;2022-09-28T19:14:44;11.00;1.00
5842;DHT22;2947;52.276;9.946;2022-09-28T19:17:10;10.70;1.00
5842;DHT22;2947;52.276;9.946;2022-09-28T19:19:36;10.70;1.00
5842;DHT22;2947;52.276;9.946;2022-09-28T19:22:03;10.70;3.30